»·PEaware :: DAL524 KSAN-KLAS

DAL524 :: KSAN-KLAS

FLIGHT INFORMATION

Flight Status: Arrived
Operator:
Delta Air Lines
More flights by this operator :: More flights under this callsign
Pilot: Clay B. (17061)
Aircraft: MCDONNELL-DOUGLAS MD-88
(MD88)
More flights by this aircraft type
Origin: KSAN San Diego Intl-Lindbergh
United States
Destination: KLAS McCarran Intl
United States
More flights between these airports :: More routes between these airports
Route: +PADRZ1 CHKNN SEBBY YELAH MISEN KEPEC6
File this flight plan on PilotEdge
Remarks: PBN / A1B2 DOF / 171205 REG / N882SB OPR / DAL RMK / TCAS SIMBRIEF
Altitude:
(Current/Filed)
30,000ft
Speed:
(Current/Filed)
458kts
Departed: 05-Dec-17 01:17 PM
Arrived: 05-Dec-17 02:20 PM
Distance/Time
Traveled:
225nm/1:03
Distance/Time
To Go:
Arrived

Flight Plot

Page will automatically refresh every two minutes.

Flight plan parsing failed; only flown route is shown


Map Options




Map Legend


Flown Route
Filed Route
Departure Airport
Arrival Airport
Navaid (VOR, NDB)
Fix

Horizontal Profiles

Position Reports

Time Latitude Longitude Heading Altitude Ground
Speed
05-Dec-17 13:05 32.732303 -117.195868 307 17ft 0kts
05-Dec-17 13:06 32.732303 -117.195868 307 17ft 0kts
05-Dec-17 13:07 32.732303 -117.195868 307 17ft 0kts
05-Dec-17 13:08 32.732303 -117.195868 307 17ft 0kts
05-Dec-17 13:09 32.732303 -117.195868 307 17ft 0kts
05-Dec-17 13:10 32.732303 -117.195868 307 17ft 0kts
05-Dec-17 13:11 32.732270 -117.195818 308 18ft 2kts
05-Dec-17 13:12 32.731900 -117.195253 307 19ft 2kts
05-Dec-17 13:13 32.731609 -117.195062 16 19ft 0kts
05-Dec-17 13:14 32.731610 -117.195062 16 19ft 0kts
05-Dec-17 13:15 32.731610 -117.195062 16 19ft 0kts
05-Dec-17 13:16 32.733395 -117.193831 71 19ft 5kts
05-Dec-17 13:17 32.732685 -117.190347 106 18ft 15kts
05-Dec-17 13:18 32.731211 -117.184232 106 16ft 20kts
05-Dec-17 13:19 32.730011 -117.179278 107 19ft 16kts
05-Dec-17 13:20 32.729490 -117.176883 82 21ft 0kts
05-Dec-17 13:21 32.729536 -117.176639 75 21ft 9kts
05-Dec-17 13:22 32.732967 -117.187207 286 19ft 125kts
05-Dec-17 13:23 32.750616 -117.236632 309 1378ft 168kts
05-Dec-17 13:24 32.779042 -117.282535 307 2607ft 197kts
05-Dec-17 13:25 32.816794 -117.344774 309 4375ft 251kts
05-Dec-17 13:26 32.861454 -117.413681 310 6690ft 274kts
05-Dec-17 13:27 32.908644 -117.486910 310 9008ft 286kts
05-Dec-17 13:28 32.959421 -117.565424 310 10469ft 326kts
05-Dec-17 13:29 33.016403 -117.654568 310 12257ft 350kts
05-Dec-17 13:30 33.078626 -117.745580 323 14244ft 356kts
05-Dec-17 13:31 33.154895 -117.821718 325 14989ft 361kts
05-Dec-17 13:32 33.232081 -117.898063 326 14996ft 360kts
05-Dec-17 13:33 33.309586 -117.973858 326 16982ft 361kts
05-Dec-17 13:34 33.386882 -118.049791 327 19085ft 360kts
05-Dec-17 13:35 33.463645 -118.125198 325 21040ft 358kts
05-Dec-17 13:36 33.539850 -118.200008 325 22736ft 357kts
05-Dec-17 13:37 33.622661 -118.262143 337 23663ft 354kts
05-Dec-17 13:38 33.713152 -118.307092 350 25126ft 359kts
05-Dec-17 13:39 33.806815 -118.262385 42 26331ft 409kts
05-Dec-17 13:40 33.871814 -118.145507 46 27188ft 428kts
05-Dec-17 13:41 33.940958 -118.027761 45 28005ft 439kts
05-Dec-17 13:42 34.012346 -117.907005 45 28769ft 449kts
05-Dec-17 13:43 34.085207 -117.784044 43 29561ft 457kts
05-Dec-17 13:44 34.164495 -117.666028 41 30170ft 458kts
05-Dec-17 13:45 34.243840 -117.547921 41 30181ft 469kts
05-Dec-17 13:46 34.326258 -117.425229 41 30251ft 472kts
05-Dec-17 13:47 34.408661 -117.302781 41 30284ft 472kts
05-Dec-17 13:48 34.491441 -117.179949 41 30265ft 471kts
05-Dec-17 13:49 34.574325 -117.057127 41 30312ft 471kts
05-Dec-17 13:50 34.657670 -116.933815 41 30330ft 474kts
05-Dec-17 13:51 34.741307 -116.810272 41 30342ft 475kts
05-Dec-17 13:52 34.824857 -116.687037 40 30333ft 473kts
05-Dec-17 13:53 34.918058 -116.581504 30 28954ft 438kts
05-Dec-17 13:54 35.007627 -116.495253 35 26895ft 390kts
05-Dec-17 13:55 35.090278 -116.414766 38 25126ft 377kts
05-Dec-17 13:56 35.160933 -116.329947 44 24141ft 347kts
05-Dec-17 13:57 35.226212 -116.247150 44 22757ft 333kts
05-Dec-17 13:58 35.289124 -116.167437 45 21405ft 320kts
05-Dec-17 13:59 35.350237 -116.090077 45 20056ft 313kts
05-Dec-17 14:00 35.409993 -116.014483 45 18748ft 306kts
05-Dec-17 14:01 35.468572 -115.940436 45 17468ft 299kts
05-Dec-17 14:02 35.525635 -115.868355 46 16218ft 293kts
05-Dec-17 14:03 35.581806 -115.797457 46 14989ft 287kts
05-Dec-17 14:04 35.636803 -115.728091 46 13804ft 281kts
05-Dec-17 14:05 35.690512 -115.660018 47 13020ft 269kts
05-Dec-17 14:06 35.741858 -115.594387 47 13024ft 266kts
05-Dec-17 14:07 35.811737 -115.569621 4 13035ft 282kts
05-Dec-17 14:08 35.889037 -115.582771 335 13012ft 293kts
05-Dec-17 14:09 35.960391 -115.592534 39 13045ft 262kts
05-Dec-17 14:10 35.991026 -115.514083 73 12507ft 257kts
05-Dec-17 14:11 36.013460 -115.432216 69 11591ft 248kts
05-Dec-17 14:12 36.031214 -115.351100 93 10788ft 250kts
05-Dec-17 14:13 36.023234 -115.265970 93 9768ft 249kts
05-Dec-17 14:14 36.016824 -115.181870 92 8860ft 238kts
05-Dec-17 14:15 36.011480 -115.103732 92 8168ft 221kts
05-Dec-17 14:16 35.981431 -115.050032 193 8059ft 245kts
05-Dec-17 14:17 35.915162 -115.084145 201 7018ft 265kts
05-Dec-17 14:18 35.858770 -115.127433 260 6677ft 242kts
05-Dec-17 14:19 35.872303 -115.200633 291 5982ft 202kts
05-Dec-17 14:20 35.899086 -115.253079 350 6088ft 183kts
05-Dec-17 14:21 35.947638 -115.243335 27 4497ft 186kts
05-Dec-17 14:22 35.991047 -115.218541 25 3613ft 156kts
05-Dec-17 14:23 36.030853 -115.195609 25 3528ft 162kts
05-Dec-17 14:24 36.064980 -115.176313 23 2482ft 121kts
05-Dec-17 14:25 36.086259 -115.164190 24 2140ft 39kts
05-Dec-17 14:26 36.089199 -115.163106 306 2130ft 0kts
05-Dec-17 14:27 36.089550 -115.163518 262 2130ft 3kts
05-Dec-17 14:28 36.087703 -115.158985 113 2119ft 0kts
05-Dec-17 14:29 36.087703 -115.158985 113 2119ft 0kts
05-Dec-17 14:30 36.087504 -115.158182 87 2117ft 7kts
05-Dec-17 14:31 36.087134 -115.154892 139 2108ft 9kts
05-Dec-17 14:32 36.086549 -115.153683 86 2104ft 0kts
05-Dec-17 14:33 36.086549 -115.153682 86 2104ft 0kts
05-Dec-17 14:34 36.086549 -115.153682 86 2104ft 0kts
05-Dec-17 14:35 36.086549 -115.153682 86 2104ft 0kts
05-Dec-17 14:36 36.086549 -115.153682 86 2104ft 0kts
05-Dec-17 14:37 36.086549 -115.153682 86 2104ft 0kts
05-Dec-17 14:38 36.086549 -115.153682 86 2104ft 0kts
05-Dec-17 14:39 36.086549 -115.153682 86 2104ft 0kts
05-Dec-17 14:40 36.086549 -115.153682 86 2104ft 0kts

Navigation Log

Ident Type
Flight plan parsing failed, navigation log unavailable